createdAt,value
2023-01-30T00:02:34.053Z,77846.75
2023-01-30T00:07:35.478Z,77814.69
2023-01-30T00:12:36.932Z,77802.66
2023-01-30T00:17:38.368Z,77788.63
2023-01-30T00:22:44.209Z,77782.59
2023-01-30T00:27:54.057Z,77752.53
2023-01-30T00:32:59.699Z,77744.50
2023-01-30T00:38:01.203Z,77738.50
2023-01-30T00:43:21.333Z,77758.53
2023-01-30T00:48:22.882Z,77732.47
2023-01-30T00:53:24.561Z,77710.44
2023-01-30T00:58:26.606Z,77722.44
2023-01-30T01:03:28.138Z,77702.41
2023-01-30T01:08:29.639Z,77692.38
2023-01-30T01:13:31.323Z,77684.38
2023-01-30T01:18:33.636Z,77664.31
2023-01-30T01:23:35.105Z,77680.34
2023-01-30T01:28:36.561Z,77662.31
2023-01-30T01:33:38.208Z,77646.28
2023-01-30T01:38:42.117Z,77652.28
2023-01-30T01:44:05.166Z,77612.19
2023-01-30T01:49:14.199Z,77600.16
2023-01-30T01:54:29.642Z,77580.09
2023-01-30T01:59:40.124Z,77588.13
2023-01-30T02:05:04.468Z,77560.06
2023-01-30T02:10:08.330Z,77552.03
2023-01-30T02:15:11.004Z,77556.06
2023-01-30T02:20:37.469Z,77588.13
2023-01-30T02:26:07.743Z,77624.22
2023-01-30T02:31:15.169Z,77624.22
2023-01-30T02:37:00.296Z,77646.28
2023-01-30T02:42:23.636Z,77662.31
2023-01-30T02:48:01.237Z,77666.31
2023-01-30T02:53:05.231Z,77684.38
2023-01-30T02:58:07.293Z,77694.38
2023-01-30T03:03:11.767Z,77706.41
2023-01-30T03:08:28.366Z,77696.38
2023-01-30T03:13:48.522Z,77700.41
2023-01-30T03:18:50.268Z,77696.38
2023-01-30T03:23:51.935Z,77698.41
2023-01-30T03:28:53.993Z,77724.47
2023-01-30T03:33:55.417Z,77710.44
2023-01-30T03:38:56.916Z,77728.47
2023-01-30T03:43:58.436Z,77718.44
2023-01-30T03:48:59.906Z,77708.41
2023-01-30T03:54:01.432Z,77696.38
2023-01-30T03:59:02.871Z,77722.44
2023-01-30T04:04:04.534Z,77730.47
2023-01-30T04:09:06.114Z,77740.50
2023-01-30T04:14:07.565Z,77746.50
2023-01-30T04:19:09.057Z,77776.59
2023-01-30T04:24:10.600Z,77782.59
2023-01-30T04:29:12.030Z,77750.53
2023-01-30T04:34:13.541Z,77746.50
2023-01-30T04:39:15.036Z,77758.53
2023-01-30T04:44:16.560Z,77766.56
2023-01-30T04:49:18.051Z,77768.56
2023-01-30T04:54:19.544Z,77766.56
2023-01-30T04:59:21.053Z,77784.59
2023-01-30T05:04:22.497Z,77770.56
2023-01-30T05:09:24.045Z,77776.59
2023-01-30T05:14:25.521Z,77756.53
2023-01-30T05:19:27.002Z,77738.50
2023-01-30T05:24:28.615Z,77730.47
2023-01-30T05:29:30.171Z,77720.44
2023-01-30T05:34:31.635Z,77726.47
2023-01-30T05:39:33.308Z,77728.47
2023-01-30T05:44:34.775Z,77724.47
2023-01-30T05:49:36.563Z,77722.44
2023-01-30T05:54:38.194Z,77738.50
2023-01-30T05:59:39.678Z,77740.50
2023-01-30T06:04:41.202Z,77734.47
2023-01-30T06:09:42.622Z,77738.50
2023-01-30T06:14:44.118Z,77712.44
2023-01-30T06:19:45.567Z,77708.41
2023-01-30T06:24:46.999Z,77708.41
2023-01-30T06:29:48.482Z,77700.41
2023-01-30T06:34:49.982Z,77696.38
2023-01-30T06:39:51.423Z,77702.41
2023-01-30T06:44:52.862Z,77690.38
2023-01-30T06:49:54.334Z,77682.34
2023-01-30T06:54:55.752Z,77674.34
2023-01-30T06:59:57.163Z,77668.31
2023-01-30T07:04:58.662Z,77686.38
2023-01-30T07:10:07.789Z,77686.38
2023-01-30T07:15:10.129Z,77668.31
2023-01-30T07:20:11.868Z,77672.34
2023-01-30T07:25:13.411Z,77672.34
2023-01-30T07:30:14.963Z,77682.34
2023-01-30T07:35:16.555Z,77684.38
2023-01-30T07:40:21.658Z,77672.34
2023-01-30T07:45:23.081Z,77646.28
2023-01-30T07:50:24.763Z,77628.22
2023-01-30T07:55:27.101Z,77598.16
2023-01-30T08:00:28.630Z,77582.13
2023-01-30T08:05:30.135Z,77576.09
2023-01-30T08:10:31.613Z,77580.09
2023-01-30T08:15:33.492Z,77580.09
2023-01-30T08:20:36.202Z,77594.16
2023-01-30T08:25:37.933Z,77604.16
2023-01-30T08:30:41.514Z,77634.25
2023-01-30T08:35:43.133Z,77648.28
2023-01-30T08:40:44.888Z,77644.25
2023-01-30T08:45:46.309Z,77640.25
2023-01-30T08:50:47.818Z,77640.25
2023-01-30T08:55:53.176Z,77638.25
2023-01-30T09:00:54.657Z,77630.22
2023-01-30T09:05:56.523Z,77612.19
2023-01-30T09:10:59.915Z,77538.00
2023-01-30T09:16:01.569Z,77489.91
2023-01-30T09:21:04.567Z,77525.97
2023-01-30T09:26:06.737Z,77521.97
2023-01-30T09:31:08.687Z,77525.97
2023-01-30T09:36:10.203Z,77315.50
2023-01-30T09:41:52.810Z,77361.59
2023-01-30T09:47:22.929Z,77423.75
2023-01-30T09:52:42.431Z,77509.94
2023-01-30T09:57:46.732Z,77568.09
2023-01-30T10:03:20.215Z,77602.16
2023-01-30T10:08:44.136Z,77606.19
2023-01-30T10:13:59.149Z,77610.19
2023-01-30T10:19:33.854Z,77596.16
2023-01-30T10:25:02.400Z,77584.13
2023-01-30T10:30:07.591Z,77580.09
2023-01-30T10:35:22.036Z,77578.09
2023-01-30T10:40:28.688Z,77574.09
2023-01-30T10:45:53.490Z,77592.13
2023-01-30T10:51:11.734Z,77475.88
2023-01-30T10:56:24.919Z,77381.63
2023-01-30T11:01:41.812Z,77307.47
2023-01-30T11:06:43.563Z,77453.81
2023-01-30T11:11:53.634Z,77550.03
2023-01-30T11:16:57.678Z,77568.09
2023-01-30T11:22:05.158Z,77566.06
2023-01-30T11:27:16.729Z,77407.69
2023-01-30T11:32:28.874Z,77351.56
2023-01-30T11:37:36.374Z,77399.69
2023-01-30T11:42:44.410Z,77399.69
2023-01-30T11:47:57.967Z,77431.75
2023-01-30T11:53:05.078Z,77437.78
2023-01-30T11:58:09.870Z,77207.25
2023-01-30T12:03:14.595Z,76712.13
2023-01-30T12:08:39.427Z,76678.06
2023-01-30T12:13:45.453Z,77000.75
2023-01-30T12:19:06.250Z,77042.84
2023-01-30T12:24:13.730Z,77010.78
2023-01-30T12:29:35.998Z,76842.41
2023-01-30T12:34:37.733Z,76708.13
2023-01-30T12:40:15.993Z,76834.41
2023-01-30T12:45:23.899Z,77113.03
2023-01-30T12:50:54.298Z,77243.31
2023-01-30T12:56:04.609Z,77363.59
2023-01-30T13:01:25.324Z,77457.81
2023-01-30T13:07:01.049Z,77540.00
2023-01-30T13:12:14.135Z,77548.03
2023-01-30T13:17:53.147Z,77433.75
2023-01-30T13:23:01.945Z,77355.56
2023-01-30T13:28:11.826Z,77435.78
2023-01-30T13:33:21.025Z,77469.84
2023-01-30T13:38:27.297Z,77469.84
2023-01-30T13:43:35.664Z,77459.81
2023-01-30T13:48:58.485Z,77471.84
2023-01-30T13:54:16.800Z,77457.81
2023-01-30T14:00:03.625Z,77465.84
2023-01-30T14:05:05.862Z,77469.84
2023-01-30T14:10:10.323Z,77479.88
2023-01-30T14:15:14.837Z,77405.69
2023-01-30T14:20:20.654Z,77345.56
2023-01-30T14:25:35.204Z,77435.78
2023-01-30T14:30:45.715Z,77449.81
2023-01-30T14:36:02.393Z,77566.06
2023-01-30T14:41:03.984Z,77622.22
2023-01-30T14:46:19.193Z,77630.22
2023-01-30T14:51:39.115Z,77574.09
2023-01-30T14:56:49.764Z,77562.06
2023-01-30T15:02:03.501Z,77574.09
2023-01-30T15:07:29.122Z,77634.25
2023-01-30T15:12:49.081Z,77662.31
2023-01-30T15:18:18.797Z,77676.34
2023-01-30T15:23:36.640Z,77700.41
2023-01-30T15:29:24.194Z,77748.50
2023-01-30T15:34:35.988Z,77794.63
2023-01-30T15:39:37.442Z,77826.72
2023-01-30T15:45:21.374Z,77870.81
2023-01-30T15:50:23.040Z,77892.88
2023-01-30T15:55:28.635Z,77890.88
2023-01-30T16:00:34.576Z,77918.94
2023-01-30T16:05:36.071Z,77947.00
2023-01-30T16:10:45.303Z,77981.09
2023-01-30T16:16:12.660Z,77981.09
2023-01-30T16:21:19.627Z,77993.13
2023-01-30T16:26:24.519Z,77997.13
2023-01-30T16:31:31.878Z,78029.22
2023-01-30T16:36:39.830Z,78055.28
2023-01-30T16:41:43.166Z,78051.28
2023-01-30T16:46:46.127Z,78077.34
2023-01-30T16:51:49.186Z,78075.31
2023-01-30T16:56:55.655Z,78079.34
2023-01-30T17:01:59.074Z,78095.38
2023-01-30T17:07:04.769Z,78143.50
2023-01-30T17:12:29.902Z,78185.59
2023-01-30T17:17:31.393Z,78199.66
2023-01-30T17:22:33.404Z,78189.63
2023-01-30T17:27:34.935Z,78225.72
2023-01-30T17:32:36.365Z,78245.75
2023-01-30T17:37:38.324Z,78239.75
2023-01-30T17:42:39.857Z,78249.78
2023-01-30T17:47:41.398Z,78245.75
2023-01-30T17:52:42.991Z,78243.75
2023-01-30T17:57:47.510Z,78283.84
2023-01-30T18:02:49.198Z,78297.88
2023-01-30T18:07:50.730Z,78327.97
2023-01-30T18:12:52.201Z,78350.03
2023-01-30T18:17:56.806Z,78340.00
2023-01-30T18:22:58.147Z,78348.03
2023-01-30T18:27:59.634Z,78358.06
2023-01-30T18:33:01.098Z,78362.06
2023-01-30T18:38:03.167Z,78392.13
2023-01-30T18:43:04.799Z,78402.16
2023-01-30T18:48:06.447Z,78404.16
2023-01-30T18:53:09.151Z,78426.22
2023-01-30T18:58:10.671Z,78426.22
2023-01-30T19:03:12.139Z,78448.28
2023-01-30T19:08:13.610Z,78470.34
2023-01-30T19:13:33.097Z,78486.38
2023-01-30T19:18:34.537Z,78516.47
2023-01-30T19:23:36.101Z,78528.50
2023-01-30T19:28:38.171Z,78528.50
2023-01-30T19:33:40.600Z,78534.50
2023-01-30T19:38:43.055Z,78544.53
2023-01-30T19:43:44.526Z,78568.59
2023-01-30T19:48:56.432Z,78574.63
2023-01-30T19:54:00.245Z,78562.59
2023-01-30T19:59:02.284Z,78564.59
2023-01-30T20:04:04.127Z,78558.56
2023-01-30T20:09:09.758Z,78574.63
2023-01-30T20:14:11.628Z,78626.75
2023-01-30T20:19:15.442Z,78644.81
2023-01-30T20:24:17.096Z,78674.88
2023-01-30T20:29:18.818Z,78692.94
2023-01-30T20:34:20.642Z,78698.94
2023-01-30T20:39:22.179Z,78682.91
2023-01-30T20:44:24.368Z,78676.88
2023-01-30T20:49:26.355Z,78672.88
2023-01-30T20:54:28.294Z,78674.88
2023-01-30T20:59:29.958Z,78710.97
2023-01-30T21:04:31.441Z,78745.06
2023-01-30T21:09:32.940Z,78767.13
2023-01-30T21:14:34.359Z,78791.19
2023-01-30T21:19:38.151Z,78793.19
2023-01-30T21:24:43.137Z,78805.22
2023-01-30T21:29:44.603Z,78793.19
2023-01-30T21:34:46.118Z,78795.19
2023-01-30T21:40:06.012Z,78811.25
2023-01-30T21:45:08.138Z,78833.31
2023-01-30T21:50:10.832Z,78829.28
2023-01-30T21:55:12.313Z,78849.34
2023-01-30T22:00:14.480Z,78841.31
2023-01-30T22:05:16.021Z,78807.25
2023-01-30T22:10:17.569Z,78817.25
2023-01-30T22:15:21.638Z,78823.28
2023-01-30T22:20:23.400Z,78823.28
2023-01-30T22:25:24.822Z,78825.28
2023-01-30T22:30:26.241Z,78825.28
2023-01-30T22:35:28.878Z,78821.28
2023-01-30T22:40:30.411Z,78815.25
2023-01-30T22:45:34.719Z,78819.28
2023-01-30T22:50:36.170Z,78809.25
2023-01-30T22:55:38.505Z,78823.28
2023-01-30T23:00:40.322Z,78831.31
2023-01-30T23:05:42.822Z,78835.31
2023-01-30T23:10:44.366Z,78845.34
2023-01-30T23:15:46.838Z,78845.34
2023-01-30T23:20:48.270Z,78843.34
2023-01-30T23:25:49.742Z,78857.38
2023-01-30T23:30:51.257Z,78861.38
2023-01-30T23:35:52.761Z,78863.38
2023-01-30T23:40:54.209Z,78839.31
2023-01-30T23:45:56.273Z,78837.31
2023-01-30T23:51:01.863Z,78849.34
2023-01-30T23:56:04.164Z,78861.38
